sail-world.com
 
 
News Home Cruising Photo Gallery Video Gallery
Sail-World.com : Brisbane to Keppel Tropical Yacht Race - Clean and quiet start
Brisbane to Keppel Tropical Yacht Race - Clean and quiet start

'Dunan Hine's Alive from Tas - Brisbane to Keppel Tropical Yacht Race 2014'    Andrew Gough    Click Here to view large photo

The gentlemanly midday start of the eighth annual Brisbane to Keppel Tropical Yacht Race on Moreton Bay for the record-equalling fleet of 35 yachts from Tasmania to Townsville was clean and quiet.

This afternoon off Caloundra on the Sunshine Coast Bob Oatley’s race record-holder Wild Oats XI comfortably leads the pack. The 100-footer, with one of Australia’s best-known sailors Iain Murray at the helm, is lapping up the building afternoon sea breeze and making good time, averaging 15 knots of boat speed. There’s plenty of clear air when you are the largest in the fleet but not much in the way of company, other than the sea birds.

Mainsails at the start - Brisbane to Keppel Tropical Yacht Race 2014 -  Andrew Gough   Click Here to view large photo

Peter Harburg’s Juan K 70 Black Jack, sailing for the event host club Royal Queensland Yacht Squadron, Yachting Australia President Matt Allen’s Carkeek 60 Ichi Ban, Duncan Hine’s RP66 Alive and Wild Oats XI all opted for the pin end of the start line in the gentle five knots of north east breeze.

Black Jack helmed by Mark Bradford tacked right first while Wild Oats XI and Alive hung in and found good pressure close under Green Island. It was high and hot to the left and low and slow to the right where Black Jack wallowed for a bit. Alive put the boot in early and at 4pm on day one is leading the IRC Overall division. Now Hobart based, Alive is the former Black Jack and a fancied handicap chance.

The crew on the second Tasmanian boat in the fleet, Michael Pritchard’s Beneteau First 45 Audere have the choice of Rogan Josh, good ‘ole spag bowl or Thai Green chicken curry for dinner, the two latter dishes cooked in Hobart by the owner’s wife Bianca and one of the crew, Daniella Polita, and hand-delivered to Brisbane in a Coles cooler bag by Daniella.

Audere Tas boat - Brisbane to Keppel Tropical Yacht Race 2014 -  Andrew Gough   Click Here to view large photo

Audere is a long way from home. Their journey began with the delivery across Bass Strait then the Sydney Gold Coast yacht race that wrapped up earlier this week, now their first Brisbane to Keppel and then onto Audi Hamilton Island Race Week starting August 16, 2014.

Back in the pack yachts are spread out all over Moreton Bay on a cool and sparkling winter’s afternoon, essentially in size order. A whale on the course early on meant crews had to keep a wary eye out and with the mammal’s migration north still going on crews will need to be vigilant throughout the 348 nautical mile coastal passage.

The fleet can expect 15 knot nor’westers tomorrow until the early hours of Saturday morning when a southerly change is set to change up the tempo with 20 plus knots of wind forecast to hit the racetrack.

Club Marine’s acting Queensland state manager Corey Yeung speaks proudly of their association with this annual feeder race. 'Club Marine is extremely proud to support the eighth annual Club Marine Brisbane to Keppel Tropical Yacht Race. As a long time sponsor, it’s especially pleasing to see that interest in the race continues to grow, with this year’s event attracting such a large fleet.

'Congratulations to the Royal Queensland Yacht Squadron for putting together such a great event.'

Iain Murray at the helm of WOXI - Brisbane to Keppel Tropical Yacht Race 2014 -  Andrew Gough   Click Here to view large photo


IRC overall

Position Name Rating Start Time Last update DTF (NM) Distance Sailed (NM) VMG* (Knots) Estimated finish time (EST) Estimated finish time (EST corrected)
1 WILD OATS XI 1.9730 31 Jul 12:00:00 31 Jul 19:30:00 262.9 90.8 9.9 01 Aug 22:04:08 03 Aug 07:13:05
2 LOCAL HERO 1.0480 31 Jul 12:00:00 31 Jul 19:30:00 301.5 47.9 5.1 03 Aug 06:45:41 03 Aug 09:57:58
3 GEORGIA EXPRESS 1.0790 31 Jul 12:00:00 31 Jul 19:30:00 297.8 48.8 5.1 03 Aug 06:08:47 03 Aug 11:22:19
4 ALIVE 1.5780 31 Jul 12:00:00 31 Jul 19:30:00 276.3 73.9 7.3 02 Aug 09:32:52 03 Aug 11:52:28
5 KERUMBA 1.2600 31 Jul 12:00:00 31 Jul 19:30:00 289.9 60.3 5.8 02 Aug 21:30:46 03 Aug 12:27:58
6 MAYFAIR 1.0820 31 Jul 12:00:00 31 Jul 19:30:00 296.8 51.0 5.0 03 Aug 07:02:33 03 Aug 12:32:24
7 BLACK JACK 1.7030 31 Jul 12:00:00 31 Jul 19:30:00 272.0 82.3 7.7 02 Aug 06:36:19 03 Aug 12:33:24
8 ICHI BAN 1.5020 31 Jul 12:00:00 31 Jul 19:30:00 280.1 70.0 6.8 02 Aug 12:51:39 03 Aug 13:23:21
9 CARBON CREDITS 1.1180 31 Jul 12:00:00 31 Jul 19:30:00 294.7 53.2 5.0 03 Aug 06:29:20 03 Aug 14:20:05
10 AUDERE 1.1040 31 Jul 12:00:00 31 Jul 19:30:00 294.6 53.6 4.9 03 Aug 07:31:35 03 Aug 14:32:57
11 PATRIOT 1.1110 31 Jul 12:00:00 31 Jul 19:30:00 294.4 53.2 4.9 03 Aug 07:07:02 03 Aug 14:34:03
12 OCEAN AFFINITY 1.2470 31 Jul 12:00:00 31 Jul 19:30:00 290.8 58.5 5.5 03 Aug 00:43:48 03 Aug 15:43:49
13 RAGTIME 1.0950 31 Jul 12:00:00 31 Jul 19:30:00 296.4 51.6 4.7 03 Aug 10:24:47 03 Aug 17:06:08
14 HASTA LA VISTA 1.1010 31 Jul 12:00:00 31 Jul 19:30:00 296.2 51.7 4.7 03 Aug 10:20:48 03 Aug 17:27:07
15 LEE-WAY 1.0160 31 Jul 12:00:00 31 Jul 19:30:00 303.5 46.8 4.4 03 Aug 16:41:55 03 Aug 17:55:33
16 BOBBYS GIRL 1.1660 31 Jul 12:00:00 31 Jul 19:30:00 295.0 53.5 4.9 03 Aug 07:09:53 03 Aug 18:18:51
17 PATRICE 1.2820 31 Jul 12:00:00 31 Jul 19:30:00 288.7 60.3 5.4 03 Aug 01:10:49 03 Aug 18:26:00
18 AFTER MIDNIGHT 1.1450 31 Jul 12:00:00 31 Jul 19:30:00 295.1 53.3 4.8 03 Aug 08:54:59 03 Aug 18:54:33
19 SWISH 1.2410 31 Jul 12:00:00 31 Jul 19:30:00 290.6 58.8 5.1 03 Aug 03:58:15 03 Aug 19:23:17
20 BROADSWORD 1.1000 31 Jul 12:00:00 31 Jul 19:30:00 297.8 50.7 4.6 03 Aug 12:15:30 03 Aug 19:29:03
21 DEKADENCE 1.1830 31 Jul 12:00:00 31 Jul 19:30:00 293.6 55.0 4.9 03 Aug 07:34:52 03 Aug 19:56:54
22 CELESTIAL 1.2670 31 Jul 12:00:00 31 Jul 19:30:00 289.4 59.9 5.2 03 Aug 03:20:48 03 Aug 20:15:37
23 FRANTIC 1.1430 31 Jul 12:00:00 31 Jul 19:30:00 299.5 49.4 4.6 03 Aug 12:02:15 03 Aug 22:20:19
24 FRANTIC 1.3460 31 Jul 12:00:00 31 Jul 19:30:00 288.9 60.2 5.3 03 Aug 01:45:14 03 Aug 23:07:15
25 ITALIAN JOB 1.0720 31 Jul 12:00:00 31 Jul 19:30:00 298.6 48.1 4.2 03 Aug 18:11:07 03 Aug 23:48:53


ORCi overall

Position Name Rating Start Time Last update DTF (NM) Distance Sailed (NM) VMG* (Knots) Estimated finish time (EST) Estimated finish time (EST corrected)
1 BLACK JACK 1.5129 31 Jul 12:00:00 31 Jul 19:30:00 272.0 82.3 7.7 02 Aug 06:36:19 03 Aug 04:27:27
2 LOCAL HERO 1.0176 31 Jul 12:00:00 31 Jul 19:30:00 301.5 47.9 5.1 03 Aug 06:45:41 03 Aug 07:56:11
3 ALIVE 1.5061 31 Jul 12:00:00 31 Jul 19:30:00 276.3 73.9 7.3 02 Aug 09:32:52 03 Aug 08:35:59
4 AUDERE 1.0690 31 Jul 12:00:00 31 Jul 19:30:00 294.6 53.6 4.9 03 Aug 07:31:35 03 Aug 12:11:09
5 CARBON CREDITS 1.0896 31 Jul 12:00:00 31 Jul 19:30:00 294.7 53.2 5.0 03 Aug 06:29:20 03 Aug 12:26:47
6 PATRIOT 1.0799 31 Jul 12:00:00 31 Jul 19:30:00 294.4 53.2 4.9 03 Aug 07:07:02 03 Aug 12:28:48
7 DRAKE'S PRAYER 1.0269 31 Jul 12:00:00 31 Jul 19:30:00 299.3 49.2 4.7 03 Aug 11:15:26 03 Aug 13:10:26
8 OCEAN AFFINITY 1.2413 31 Jul 12:00:00 31 Jul 19:30:00 290.8 58.5 5.5 03 Aug 00:43:48 03 Aug 15:23:02
9 HASTA LA VISTA 1.0736 31 Jul 12:00:00 31 Jul 19:30:00 296.2 51.7 4.7 03 Aug 10:20:48 03 Aug 15:31:28
10 RAGTIME 1.0818 31 Jul 12:00:00 31 Jul 19:30:00 296.4 51.6 4.7 03 Aug 10:24:47 03 Aug 16:10:22
11 AIRSTREAM 1.0214 31 Jul 12:00:00 31 Jul 19:30:00 301.9 46.7 4.5 03 Aug 14:56:36 03 Aug 16:32:50
12 SOUTHERN CROSS YACHT 1.0759 31 Jul 12:00:00 31 Jul 19:30:00 296.7 51.3 4.7 03 Aug 11:13:09 03 Aug 16:37:29
13 FRANTIC 1.0752 31 Jul 12:00:00 31 Jul 19:30:00 299.5 49.4 4.6 03 Aug 12:02:15 03 Aug 17:27:17
14 BROADSWORD 1.0725 31 Jul 12:00:00 31 Jul 19:30:00 297.8 50.7 4.6 03 Aug 12:15:30 03 Aug 17:29:49
15 BOBBYS GIRL 1.1629 31 Jul 12:00:00 31 Jul 19:30:00 295.0 53.5 4.9 03 Aug 07:09:53 03 Aug 18:06:21
16 LEE-WAY 1.0200 31 Jul 12:00:00 31 Jul 19:30:00 303.5 46.8 4.4 03 Aug 16:41:55 03 Aug 18:13:57
17 AFTER MIDNIGHT 1.1376 31 Jul 12:00:00 31 Jul 19:30:00 295.1 53.3 4.8 03 Aug 08:54:59 03 Aug 18:23:57
18 PATRICE 1.2872 31 Jul 12:00:00 31 Jul 19:30:00 288.7 60.3 5.4 03 Aug 01:10:49 03 Aug 18:45:05
19 SPIRIT OF MATESHIP 1.4070 31 Jul 12:00:00 31 Jul 19:30:00 286.3 63.4 5.9 02 Aug 20:07:21 03 Aug 18:57:52
20 SWISH 1.2380 31 Jul 12:00:00 31 Jul 19:30:00 290.6 58.8 5.1 03 Aug 03:58:15 03 Aug 19:11:46
21 CELESTIAL 1.2503 31 Jul 12:00:00 31 Jul 19:30:00 289.4 59.9 5.2 03 Aug 03:20:48 03 Aug 19:12:09
22 DEKADENCE 1.1834 31 Jul 12:00:00 31 Jul 19:30:00 293.6 55.0 4.9 03 Aug 07:34:52 03 Aug 19:58:32
23 ITALIAN JOB 1.0397 31 Jul 12:00:00 31 Jul 19:30:00 298.6 48.1 4.2 03 Aug 18:11:07 03 Aug 21:17:21
24 FRANTIC 1.3202 31 Jul 12:00:00 31 Jul 19:30:00 288.9 60.2 5.3 03 Aug 01:45:14 03 Aug 21:31:39
25 YELLOW CAB EUPHORIA 1.0474 31 Jul 12:00:00 31 Jul 19:30:00 298.4 49.6 4.2 03 Aug 18:06:05 03 Aug 21:48:12
26 LLOYDS TOO IMPETUOUS 1.0155 31 Jul 12:00:00 31 Jul 19:30:00 303.3 44.3 2.7 05 Aug 09:51:26 05 Aug 11:41:03


PHS overall

Position Name Rating Start Time Last update DTF (NM) Distance Sailed (NM) VMG* (Knots) Estimated finish time (EST) Estimated finish time (EST corrected)
1 SYNCHRONICITY 1.0850 31 Jul 12:00:00 31 Jul 17:15:00 311.6 34.7 7.3 02 Aug 11:48:47 02 Aug 15:52:37
2 WILD OATS XI 2.0000 31 Jul 12:00:00 31 Jul 19:30:00 262.9 90.8 9.9 01 Aug 22:04:08 03 Aug 08:08:16
3 LOCAL HERO 1.0480 31 Jul 12:00:00 31 Jul 19:30:00 301.5 47.9 5.1 03 Aug 06:45:41 03 Aug 09:57:58
4 KERUMBA 1.2280 31 Jul 12:00:00 31 Jul 19:30:00 289.9 60.3 5.8 02 Aug 21:30:46 03 Aug 10:37:33
5 GEORGIA EXPRESS 1.0790 31 Jul 12:00:00 31 Jul 19:30:00 297.8 48.8 5.1 03 Aug 06:08:47 03 Aug 11:22:19
6 AIRSTREAM 0.9560 31 Jul 12:00:00 31 Jul 19:30:00 301.9 46.7 4.5 03 Aug 14:56:36 03 Aug 11:38:45
7 CARBON CREDITS 1.0900 31 Jul 12:00:00 31 Jul 19:30:00 294.7 53.2 5.0 03 Aug 06:29:20 03 Aug 12:28:22
8 MAYFAIR 1.0820 31 Jul 12:00:00 31 Jul 19:30:00 296.8 51.0 5.0 03 Aug 07:02:33 03 Aug 12:32:24
9 SPIRIT OF MATESHIP 1.3000 31 Jul 12:00:00 31 Jul 19:30:00 286.3 63.4 5.9 02 Aug 20:07:21 03 Aug 12:57:33
10 DRAKE'S PRAYER 1.0300 31 Jul 12:00:00 31 Jul 19:30:00 299.3 49.2 4.7 03 Aug 11:15:26 03 Aug 13:23:42
11 OCEAN AFFINITY 1.2100 31 Jul 12:00:00 31 Jul 19:30:00 290.8 58.5 5.5 03 Aug 00:43:48 03 Aug 13:28:59
12 AUDERE 1.0950 31 Jul 12:00:00 31 Jul 19:30:00 294.6 53.6 4.9 03 Aug 07:31:35 03 Aug 13:56:30
13 PATRIOT 1.1050 31 Jul 12:00:00 31 Jul 19:30:00 294.4 53.2 4.9 03 Aug 07:07:02 03 Aug 14:09:53
14 THE MATRIX 1.1000 31 Jul 12:00:00 31 Jul 19:30:00 295.7 53.6 4.9 03 Aug 07:27:50 03 Aug 14:12:37
15 BROADSWORD 1.0500 31 Jul 12:00:00 31 Jul 19:30:00 297.8 50.7 4.6 03 Aug 12:15:30 03 Aug 15:52:16
16 HASTA LA VISTA 1.0880 31 Jul 12:00:00 31 Jul 19:30:00 296.2 51.7 4.7 03 Aug 10:20:48 03 Aug 16:32:14
17 BLACK JACK 1.8000 31 Jul 12:00:00 31 Jul 19:30:00 272.0 82.3 7.7 02 Aug 06:36:19 03 Aug 16:41:22
18 SOUTHERN CROSS YACHT 1.0800 31 Jul 12:00:00 31 Jul 19:30:00 296.7 51.3 4.7 03 Aug 11:13:09 03 Aug 16:55:01
19 RAGTIME 1.0950 31 Jul 12:00:00 31 Jul 19:30:00 296.4 51.6 4.7 03 Aug 10:24:47 03 Aug 17:06:08
20 ICHI BAN 1.5850 31 Jul 12:00:00 31 Jul 19:30:00 280.1 70.0 6.8 02 Aug 12:51:39 03 Aug 17:26:40
21 LEE-WAY 1.0100 31 Jul 12:00:00 31 Jul 19:30:00 303.5 46.8 4.4 03 Aug 16:41:55 03 Aug 17:27:56
22 BOBBYS GIRL 1.1600 31 Jul 12:00:00 31 Jul 19:30:00 295.0 53.5 4.9 03 Aug 07:09:53 03 Aug 17:54:40
23 FRANTIC 1.0900 31 Jul 12:00:00 31 Jul 19:30:00 299.5 49.4 4.6 03 Aug 12:02:15 03 Aug 18:31:15
24 AFTER MIDNIGHT 1.1450 31 Jul 12:00:00 31 Jul 19:30:00 295.1 53.3 4.8 03 Aug 08:54:59 03 Aug 18:54:33
25 DEKADENCE 1.1700 31 Jul 12:00:00 31 Jul 19:30:00 293.6 55.0 4.9 03 Aug 07:34:52 03 Aug 19:04:11
26 SWISH 1.2500 31 Jul 12:00:00 31 Jul 19:30:00 290.6 58.8 5.1 03 Aug 03:58:15 03 Aug 19:57:49
27 CELESTIAL 1.2800 31 Jul 12:00:00 31 Jul 19:30:00 289.4 59.9 5.2 03 Aug 03:20:48 03 Aug 21:05:02
28 PATRICE 1.3350 31 Jul 12:00:00 31 Jul 19:30:00 288.7 60.3 5.4 03 Aug 01:10:49 03 Aug 21:40:33
29 YELLOW CAB EUPHORIA 1.0470 31 Jul 12:00:00 31 Jul 19:30:00 298.4 49.6 4.2 03 Aug 18:06:05 03 Aug 21:46:19
30 FRANTIC 1.3250 31 Jul 12:00:00 31 Jul 19:30:00 288.9 60.2 5.3 03 Aug 01:45:14 03 Aug 21:49:26
31 ALIVE 1.8200 31 Jul 12:00:00 31 Jul 19:30:00 276.3 73.9 7.3 02 Aug 09:32:52 03 Aug 22:53:50
32 ITALIAN JOB 1.0720 31 Jul 12:00:00 31 Jul 19:30:00 298.6 48.1 4.2 03 Aug 18:11:07 03 Aug 23:48:53
33 LLOYDS TOO IMPETUOUS 0.9540 31 Jul 12:00:00 31 Jul 19:30:00 303.3 44.3 2.7 05 Aug 09:51:26 05 Aug 04:26:09
34 THE HEALER 0.8070 31 Jul 12:00:00 31 Jul 19:30:00 309.3 40.8 2.2 06 Aug 16:51:51 05 Aug 12:08:00


Event website


by Lisa Ratcliff - OCC


  

Click on the FB Like link to post this story to your FB wall

http://www.sail-world.com/index.cfm?nid=125079

8:29 AM Thu 31 Jul 2014GMT


Click here for printer friendly version
Click here to send us feedback or comments about this story.

Click for further information on


Related News Stories:

31 Jul 2014  Brisbane to Keppel Race – A gentle start






News - USA and the World

Catch the live coverage of the Leg 4 Finish in Auckland. Check the video timer for a countdown to the start of coverage and the expected race finish time. Sail-World is updating the on the water action and weather - which has compressed the lead four boats ... [more]  

O MAPFRE conquistou de maneira emocionante a quarta etapa da Volvo Ocean Race, disputada entre a China e a Nova Zelândia. Na manhã deste sábado (28), o barco espanhol cruzou a linha de chegada em primeiro após quase 21 dias de navegação. ... [more]  

Volvo Ocean Race: Images ashore after Leg 4 by Richard Gladwell, Sail-World.com NZL
Sail-World's NZ Editor, Richard Gladwell, was on the water and ashore for the finish of Leg 4 of the Volvo Ocean Race, and provided this gallery of images after the first three boats had docked. ... [more]  

Volvo Ocean Race: Images from the finish of Leg 4 by Richard Gladwell, Sail-World.com NZL
Sail-World's NZ Editor, Richard Gladwell, was on the water for the finish of Leg 4 of the Volvo Ocean race, and captured these images from the final few miles of the race, and on the dock. ... [more]  

RYA Suzuki Dinghy Show - a British tradition by Rob Kothe and Jedda Murphy
Our favourite boat show in the whole world is the RYA Suzuki Dinghy Show. It is like no other, with a large percentage of eight to 15-year olds, with many young siblings often dragging their parents down the aisles. Its a dull overcast day in Lonon with rain showers, but inside the heated halls of the Alexandra Palace, the fabled 'Ally Pally' , around 5,000 visitors will gaze at touch and feel ... [more]  

MAPFRE (Xabi Fernández/ESP) emerged victorious despite a pair of major setbacks in Leg 4 following one of the tightest-fought finishes in Volvo Ocean Race history on Saturday night. The victory gives the 2014-15 edition its fourth winner in four legs following successes for Abu Dhabi Ocean Racing (Ian Walker/GBR), Team Brunel (Bouwe Bekking/NED), and Dongfeng Race Team (Charles Caudrelier/FRA). ... [more]  

Mapfre took the gun, Abu Dhabi Ocean Racing was second and Dongfeng third. Photographer Ainhoa Sanchez was in the air over Auckland for 2014 – 2015 Volvo Ocean Race, and provided these images. ... [more]  

Photographer Ainhoa Sanchez was in the air as the fleet approached Auckland for the end of leg 4 for the 2014 – 2015 Volvo Ocean Race, and provided this gallery of images. ... [more]  

The wind has switched half turn and boats are now beating upwind to the finish, MAPFRE has held their lead and with the change in direction look quite safe. Team Alvimedica who was catching up at speed has slowed right up, caught in light winds behind Tiritiri Matangi island. With less than 10nm to go to finish and a fair 10kt wind holding, the slow patch looks to have been removed from equation ... [more]  

2015 RORC Caribbean 600 - Hap Fauth's American JV72, Bella Mente has been declared the overall winner. Whilst several yachts are still racing, by the morning of Friday 27th February none of the remaining teams had the ability to better Bella Mente's corrected time under IRC. It was third time lucky for Bella Mente as the Maxi 72 has finished second overall for the past two years. ... [more]  

Racing in second place in the Barcelona World Race, the Barcelona sailor Guillermo Altadill and Chilean José Muñoz passed Cape Horn (67° 17' 35 W) this morning at 2h12 UTC (3h12 am in Barcelona, 11h12 pm of the 27th of February in Chile), after 58 days, 14 hours and 12 minutes of racing since their start from the Catalan capital on 31 December 2014. ... [more]  

On Sunday March 8th 2015, the St. Maarten Heineken Regatta will close out the final night of music with one of the most distinctive performances to date. DJ Natty Rico will be the final act to grace the regatta stage during the 'Legendary Party' following Kool and the Gang. His unique blend of saxophone playing and DJ skills will have your jaw dropping in amazement. ... [more]  

Barcelona World Race - Cape Horn beckons for second and third placed Neutrogena and GAES Centros Auditivos. While the two IMOCA 60s are expected to pass at speed with around six hours of separation, in what might be considered favourable conditions for one of the most inhospitable and complicated corners of the Barcelona World Race, amidst the long hours of stress and fatigue ... [more]  

SCYA Manning Regatta – The youth-heavy event is the fourth and last stop of the Shadden Series for teenagers under 19 not yet in college and is also a move-up regatta under the advancement guidelines of the International Naples Sabot Association. ... [more]  

US Sailing’s Rolex Yachtsman & Yachtswoman of the Year Awards 2015 ceremony celebrated the sailing accomplishments of Terry Hutchinson (Annapolis, Md.) and Stephanie Roble (East Troy, Wisc.) as it returned to the iconic Model Room at the New York Yacht Club in Manhattan after having moved to the west coast for the past three years. ... [more]  

For the Finn World Masters in Kavala, Greece pre-registration is open. So far 130 Masters have entered. 2015 will be the first time the Worlds Masters have been held in Greece. ... [more]  

The website for the 2015 Finn Open and Junior Europeans in Split, Croatia, is now live, with online entry open. The last time the Finns had an event there the wind did not cooperate and the fleet ended up sailing some races as the sun set. ... [more]  

RORC Caribbean 600 – Four Figaro II teams, all from the Guadeloupe Grand Large sailing academy, are racing in this year's event. 18 sailors from the offshore racing academy are racing on four identical yachts and have high aspirations for the future; the Solitaire du Figaro, Route du Rhum or the Everest of offshore solo-sailing, the Vendée Globe. ... [more]  

After having moved to the west coast for the past three years, US Sailing’s Rolex Yachtsman and Yachtswoman of the Year Awards ceremony returned to the iconic Model Room at the New York Yacht Club in Manhattan to celebrate the sailing accomplishments of Terry Hutchinson (Annapolis, Md.) and Stephanie Roble (East Troy, Wisc.). ... [more]  

If, in the end, the Pacific gave up race leaders Cheminées Poujoulat without too much of a fight and since Wednesday morning the Atlantic, in turn, has opened its fastest toll-free lane north east to Bernard Stamm and Jean Le Cam, the Pacific seems rather more keen to hold on to second and third placed Neutrogena and GAES Centros Auditivos. ... [more]  

America's Cup Defender Oracle Team USA and Challenger, Artemis Racing lined up for a series of try-outs on San Francisco Bay. Videographer John Navas was shoreside with a new high resolution video camera and provided these videos of the training sessions and hook-ups. ... [more]  

The HPYD conference is jointly organised by The Royal Institution of Naval Architects (NZ) and The University of Auckland and will be held at the Marine Event Centre in Auckland to coincide with the Volvo Ocean Race stopover. It attracts some of the world’s most preeminent yacht designers and is recognised as one of the top three conferences in this area internationally. ... [more]  

Volvo Ocean Race: Ryan Houston - How Alvimedica's chemistry works *Feature by Richard Gladwell/Sail-World.com NZL
Ryan Houston is a watch captain aboard Team Alvimedica. He sailed in two previous editions of the Volvo Ocean Race – in 2008-09 aboard Delta Lloyd and 2011-12 on the incident plagued Volvo 70, Sanya. With the switch to the one design, ruggedly constructed Volvo 65 for this race many of the issues that bedevilled the competitors and organisers in the previous races appear to have been resolved. ... [more]  

Volvo Ocean Race: Dave Swete - Alvimedica's race so far *Feature by Richard Gladwell/Sail-World.com NZL
The Volvo Ocean Race and its forerunner, the Whitbread Round the World Race, used to be dominated by Kiwi crews. In the current edition, there are just three New Zealanders competing. Two of those are on Team Alvimedica, the US and Turkish flagged entry. ... [more]  

Volvo Ocean Race 2015 – Victory in the fourth leg was so close that Dongfeng Race Team skipper Charles Caudrelier (FRA) could almost taste it on Thursday, but with just over 500 nautical miles (nm) to go, he was taking nothing for granted ... [more]  

The 2014-15 Etchells North American Midwinter East Series wraps up in Miami this weekend with the three-day Jaguar Southeastern Midwinter Regatta for the Schoonmaker Cup. The Jag, as the series has become better known, attracted over 50 boats for the four regatta series. ... [more]  

RORC Caribbean 600 – By the morning of day four, 19 yachts had completed the race and 43 yachts were still racing. Last night the lighter southerly wind had switched back to an easterly direction with substantial cloud activity providing changeable conditions for the competitors ... [more]  

Volvo Ocean Race: Team Alvimedica hopes to use Coastal Classic tricks *Feature by Richard Gladwell, Sail-World.com NZL
Sail-World’s NZ Editor, Richard Gladwell spoke with David Swete one of three New Zealand crew in the 2014-15 Volvo Ocean Race Swete was reporting in from Team Alvimedica the US and Turkish flagged entry, currently lying in fourth place on leg 4 of the race from Sanya China to Auckand. ... [more]  

Oracle Team USA AC45 Turbo Feb 25 Training images provided by pressure-drop.us. Flat flood conditions and winds 12-18 and then picking up late in the day. Boat is matching the olars established with the AC 72's. ... [more]  

America's Cup: Emirates Team New Zealand gears up on less money *Feature by Richard Gladwell, Sail-World.com NZL
Emirates Team New Zealand has pushed the start button on their campaign for the 35th America's Cup, with a budget that has been reduced by an estimated 20% from the San Francisco campaign. The decision to relocate the Venue for the Match to the British Overseas Territory of Bermuda has resulted in reduced attractiveness to sponsors, which in turn has led to cuts in the program ... [more]  

Volvo Ocean Race 2015 – Dongfeng has pulled another mile from Abu Dhabi, and MAPFRE looks like they have been making some good gains on the two leading boats. ... [more]  

AWT Goya Pro Cabo Verde kicks off in style! by American Windsurfing Tour
Last night saw the Opening Party for the Goya Cabo Verde Pro contest here on the beautiful island of Sal. In attendance were some of the biggest names in windsurfing along with local watermen, business men and dignitaries. The true spirit of the American Windsurfing Tour came out in force which was both mirrored and complimented by the spirit of this island ... [more]  

With Cheminées Poujoulat making good progress up the Atlantic, making close to 18kts, 120 miles SW of the Falklands, Cape Horn marks the frontier between the two different worlds inhabited by skippers on the Barcelona World Race. ... [more]  

America's Cup: Barker offered non-sailing role by Emirates team NZ
2015 CYC Midwinters Race – Pictures by pressure-drop.us
CYC Midwinters Racing – Bring On The Breeze! – Overall
Laser World Championship – Over 2000 sailors to race in Kingston
Volvo Ocean Race: Barkow and Lush - from the Olympics to the Volvo *Feature
Volvo Ocean Race 2015 – Its anyone's race - Leg 4 to Auckland
Barcelona World Race - A time for extra care and caution
2015 RORC Caribbean 600 - Phaedo3 breaks record
Barcelona World Race - Cheminées Poujoulat pass Cape Horn
2015 RORC Caribbean 600 - Records predicted to tumble + Video
2015 ISAF Women’s Match Racing World Championship - NOR released
Asher Otto and Itchy Feet to open up the Caribbean Jam night
RS Sailing and BIC Sport North America team up for sailing programs
RORC Caribbean 600 – Record pace on Day 2
Port of Los Angeles Harbor Cup - About to begin
10 tips from BoatUS for owners and renters
Aquece Rio International Sailing Regatta – Notice of Race online
2015 CYC Mid Winters images by h20shots
Adventures of a Sailor Girl: News and interviews from February 23 show
Volvo Ocean Race: Ryan Houston looking forward to his Kiwi home
Volvo Ocean Race: Wislang expected to lead Kiwis home after fast ride   
Volvo Ocean Race – Now the race to Auckland is truly on   
America's Cup: Spooner fails in attempt to have Oracle AC45 arrested   
2015 505 Midwinter Championship - Final race   
Barcelona World Race – Renault Captur resume, Spirit of Hungary stuck   
2015 ISAF Youth Sailing World – Emerging Nations Programme announced   
Barcelona World Race - Spirit of Hungary to make surprise pit-stop   
US Sailing Match Racing Committee launches The Dial Up Newsletter   
JJ Giltinan Trophy: Michael Chittenden's images from Race 7   
Volvo Ocean Race – The Doldrums outside the Doldrums   
Volvo Ocean Race: Leg 4 Winner expected in Auckland on Saturday   
Volvo Ocean Race 2015 – Biggest challenges are around the corner   
86th SCYA Midwinter Regatta - Day 2 overall   
SCYA Midwinter Regatta - Farr 40 and Cal 25 class winners announced   
Barcelona World Race - The Bountiful Horn Beckons for Stamm and Le Cam   
Geelong boat Phoenix wins Sydney 38 National Title   
JJ Giltinan 18 foot Skiff Championship 2015 images by Bruce Kerridge   
Volvo Ocean Race - Leg 4 restart from the Doldrums   
Melges 24 U.S. Championship is enjoying early success   
JJ Giltinan Trophy: Records set as rookie Kiwi crew second in Race 7   


For this week's complete news stories select    Last 7 Days
   Search All News
For last month's complete news stories select    Last 30 Days
   Archive News







Sail-World.com  


















Switch Default Region to:

Social Media

Asia

Australia

Canada

Europe

New Zealand

United Kingdom


http://www.sail-world.com/event_images/image/Twitter_logo_small.png http://www.sail-world.com/event_images/image/FaceBook-icon.png  http://www.sail-world.com/event_images/image/RSS-Icon.png

United States

Cruising Northern

Cruising Southern

MarineBusiness World

PowerBoat World

FishingBoating World

 

Contact

Commercial

News

Search

Contact Us

Advertisers Information

Submit news/events

Search Stories/Text

Feedback

Advertisers Directory

Newsletter Archive

Photo Gallery

 

Banner Advertising Details

Newsletter Subscribe

Video Gallery

Policies

 

 

 

Privacy Policy

 

 


Cookie Policy

 

 



This site and its contents are © Copyright TetraMedia and/or the original author, photographer etc. All Rights Reserved.  Photographs are copyright by law.  If you wish to use or buy a photograph contact the photographer directly.
XLXL NEW US
LocalAds   DE  ES  FR  IT